Cobalt, Canada
Current Conditions -  °F | °C
As of 12:00 AM on Friday 31 Oct 2014 (Local Time) from CYXR Reporting Station
Light Snow Light Snow  
Wind Chill: 23°   Ceiling: 5500
Heat Index: 28°   Visibility: 9mi
Dew Point: 28°   Wind: 5mph
Humidity: 100%   Direction: 360°N
Pressure: 30.04"   Gusts: NA
Location:  47.38°N, 79.68°W
Report Text: CYXR 310400Z AUTO 36004KT 9SM -SN OVC055 M02/M02 A3004 RMK SLP185
Loading
Personal Weather Stations






























Interactive Weather Map
Tropical Storm Tracking
New forecast layout! Learn more

10-Day Weather Forecast

Advertisements
Track Severe Weather on mobile